createdAt,value
2019-02-03T00:00:33.424Z,22.62
2019-02-03T00:01:11.677Z,22.50
2019-02-03T00:01:44.750Z,20.85
2019-02-03T00:02:17.516Z,21.50
2019-02-03T00:02:50.034Z,21.42
2019-02-03T00:03:22.650Z,22.75
2019-02-03T00:03:55.524Z,23.18
2019-02-03T00:04:28.726Z,22.25
2019-02-03T00:05:01.507Z,20.70
2019-02-03T00:05:34.567Z,22.25
2019-02-03T00:06:07.442Z,21.75
2019-02-03T00:06:39.922Z,23.30
2019-02-03T00:07:12.696Z,22.48
2019-02-03T00:07:45.174Z,22.05
2019-02-03T00:08:17.710Z,21.80
2019-02-03T00:08:50.191Z,20.55
2019-02-03T00:09:22.911Z,23.20
2019-02-03T00:09:55.390Z,22.10
2019-02-03T00:10:28.181Z,21.37
2019-02-03T00:11:01.033Z,20.02
2019-02-03T00:11:33.910Z,20.37
2019-02-03T00:12:07.328Z,21.65
2019-02-03T00:12:39.826Z,22.17
2019-02-03T00:13:12.657Z,20.37
2019-02-03T00:13:45.132Z,21.68
2019-02-03T00:14:17.607Z,21.87
2019-02-03T00:14:50.464Z,21.40
2019-02-03T00:15:22.955Z,21.07
2019-02-03T00:15:55.559Z,21.00
2019-02-03T00:16:28.623Z,21.82
2019-02-03T00:17:01.136Z,20.40
2019-02-03T00:17:33.606Z,21.95
2019-02-03T00:18:06.111Z,21.42
2019-02-03T00:18:38.907Z,22.25
2019-02-03T00:19:11.688Z,21.35
2019-02-03T00:19:44.173Z,20.12
2019-02-03T00:20:16.660Z,21.25
2019-02-03T00:20:49.131Z,20.70
2019-02-03T00:21:21.623Z,20.25
2019-02-03T00:21:54.319Z,19.17
2019-02-03T00:22:26.782Z,21.62
2019-02-03T00:22:59.595Z,18.85
2019-02-03T00:23:32.199Z,20.35
2019-02-03T00:24:05.416Z,17.87
2019-02-03T00:24:37.931Z,20.17
2019-02-03T00:25:10.524Z,20.30
2019-02-03T00:25:43.115Z,18.65
2019-02-03T00:26:17.701Z,19.25
2019-02-03T00:26:49.906Z,20.52
2019-02-03T00:27:22.411Z,20.62
2019-02-03T00:27:55.162Z,17.92
2019-02-03T00:28:27.791Z,19.77
2019-02-03T00:29:00.266Z,19.62
2019-02-03T00:29:32.749Z,19.90
2019-02-03T00:30:06.638Z,20.40
2019-02-03T00:30:39.126Z,20.05
2019-02-03T00:31:11.913Z,18.10
2019-02-03T00:31:44.679Z,17.92
2019-02-03T00:32:17.155Z,20.02
2019-02-03T00:32:51.708Z,18.25
2019-02-03T00:33:24.113Z,17.48
2019-02-03T00:33:56.623Z,19.67
2019-02-03T00:34:29.120Z,18.50
2019-02-03T00:35:01.622Z,18.75
2019-02-03T00:35:34.711Z,18.30
2019-02-03T00:36:07.836Z,18.02
2019-02-03T00:36:40.610Z,17.23
2019-02-03T00:37:16.163Z,19.15
2019-02-03T00:37:47.810Z,19.35
2019-02-03T00:38:23.427Z,16.73
2019-02-03T00:38:54.600Z,18.62
2019-02-03T00:39:27.103Z,18.98
2019-02-03T00:39:59.566Z,18.55
2019-02-03T00:40:32.132Z,17.17
2019-02-03T00:41:04.763Z,16.87
2019-02-03T00:41:37.248Z,18.55
2019-02-03T00:42:10.140Z,16.95
2019-02-03T00:42:42.967Z,19.60
2019-02-03T00:43:15.903Z,17.25
2019-02-03T00:43:48.395Z,17.35
2019-02-03T00:44:20.880Z,19.07
2019-02-03T00:44:53.376Z,16.60
2019-02-03T00:45:25.856Z,18.45
2019-02-03T00:45:58.331Z,18.35
2019-02-03T00:46:31.221Z,17.77
2019-02-03T00:47:03.702Z,17.00
2019-02-03T00:47:36.496Z,18.25
2019-02-03T00:48:08.966Z,15.65
2019-02-03T00:48:41.797Z,17.82
2019-02-03T00:49:14.295Z,17.30
2019-02-03T00:49:47.360Z,18.05
2019-02-03T00:50:20.526Z,18.27
2019-02-03T00:50:53.032Z,16.95
2019-02-03T00:51:25.740Z,16.75
2019-02-03T00:51:58.271Z,16.73
2019-02-03T00:52:30.771Z,16.55
2019-02-03T00:53:03.460Z,17.40
2019-02-03T00:53:35.941Z,17.40
2019-02-03T00:54:08.436Z,16.73
2019-02-03T00:54:40.942Z,15.68
2019-02-03T00:55:14.647Z,17.42
2019-02-03T00:55:47.154Z,16.48
2019-02-03T00:56:19.924Z,17.25
2019-02-03T00:56:52.424Z,17.05
2019-02-03T00:57:25.598Z,17.77
2019-02-03T00:57:58.087Z,18.42
2019-02-03T00:58:30.589Z,17.02
2019-02-03T00:59:03.181Z,16.35
2019-02-03T00:59:35.672Z,17.12
2019-02-03T01:00:09.918Z,17.82
2019-02-03T01:00:42.423Z,15.83
2019-02-03T01:01:14.893Z,18.35
2019-02-03T01:01:47.389Z,18.00
2019-02-03T01:02:19.862Z,18.60
2019-02-03T01:02:52.568Z,18.05
2019-02-03T01:03:26.443Z,17.90
2019-02-03T01:03:59.331Z,16.80
2019-02-03T01:04:31.822Z,17.80
2019-02-03T01:05:06.720Z,17.42
2019-02-03T01:05:39.631Z,16.52
2019-02-03T01:06:12.076Z,17.60
2019-02-03T01:06:44.551Z,18.48
2019-02-03T01:07:27.155Z,17.27
2019-02-03T01:07:51.603Z,17.30
2019-02-03T01:08:24.539Z,16.80
2019-02-03T01:08:57.516Z,18.60
2019-02-03T01:09:29.990Z,18.27
2019-02-03T01:10:02.689Z,18.23
2019-02-03T01:10:35.176Z,17.95
2019-02-03T01:11:07.671Z,17.67
2019-02-03T01:11:40.167Z,16.90
2019-02-03T01:12:12.658Z,17.07
2019-02-03T01:12:45.123Z,18.35
2019-02-03T01:13:17.710Z,16.48
2019-02-03T01:13:50.236Z,17.95
2019-02-03T01:14:22.729Z,18.52
2019-02-03T01:14:55.215Z,17.25
2019-02-03T01:15:27.707Z,15.83
2019-02-03T01:16:00.199Z,17.98
2019-02-03T01:16:33.084Z,19.35
2019-02-03T01:17:05.666Z,17.50
2019-02-03T01:17:38.952Z,17.85
2019-02-03T01:18:11.430Z,15.70
2019-02-03T01:18:44.318Z,16.70
2019-02-03T01:19:16.819Z,18.00
2019-02-03T01:19:49.596Z,17.40
2019-02-03T01:20:22.328Z,16.02
2019-02-03T01:20:54.799Z,17.60
2019-02-03T01:21:27.278Z,18.17
2019-02-03T01:22:00.041Z,15.35
2019-02-03T01:22:32.523Z,17.80
2019-02-03T01:23:05.388Z,17.70
2019-02-03T01:23:38.138Z,17.37
2019-02-03T01:24:10.634Z,17.48
2019-02-03T01:24:43.421Z,16.27
2019-02-03T01:25:16.042Z,16.87
2019-02-03T01:25:48.527Z,18.12
2019-02-03T01:26:21.012Z,17.45
2019-02-03T01:26:53.506Z,18.62
2019-02-03T01:27:25.993Z,17.57
2019-02-03T01:27:59.447Z,17.70
2019-02-03T01:28:32.201Z,17.57
2019-02-03T01:29:05.379Z,17.20
2019-02-03T01:29:37.875Z,17.55
2019-02-03T01:30:18.804Z,17.55
2019-02-03T01:30:51.297Z,17.07
2019-02-03T01:31:24.062Z,16.75
2019-02-03T01:31:56.567Z,17.87
2019-02-03T01:32:29.643Z,17.55
2019-02-03T01:33:02.790Z,16.40
2019-02-03T01:33:35.275Z,17.30
2019-02-03T01:34:08.121Z,18.02
2019-02-03T01:34:40.604Z,18.60
2019-02-03T01:35:13.308Z,17.70
2019-02-03T01:35:45.834Z,17.05
2019-02-03T01:36:18.324Z,17.00
2019-02-03T01:36:51.269Z,17.50
2019-02-03T01:37:23.750Z,16.93
2019-02-03T01:37:56.244Z,17.52
2019-02-03T01:38:29.530Z,17.98
2019-02-03T01:39:02.115Z,18.50
2019-02-03T01:39:34.597Z,18.32
2019-02-03T01:40:09.767Z,19.45
2019-02-03T01:40:42.265Z,17.00
2019-02-03T01:41:14.793Z,17.23
2019-02-03T01:41:47.292Z,17.90
2019-02-03T01:42:19.769Z,17.95
2019-02-03T01:42:52.247Z,18.80
2019-02-03T01:43:25.586Z,17.55
2019-02-03T01:43:58.263Z,18.67
2019-02-03T01:44:31.110Z,18.50
2019-02-03T01:45:06.671Z,18.17
2019-02-03T01:45:39.510Z,17.87
2019-02-03T01:46:12.294Z,17.32
2019-02-03T01:46:44.816Z,18.57
2019-02-03T01:47:17.294Z,18.35
2019-02-03T01:47:49.795Z,18.42
2019-02-03T01:48:22.399Z,17.32
2019-02-03T01:48:55.269Z,17.05
2019-02-03T01:49:27.760Z,17.17
2019-02-03T01:50:00.264Z,18.10
2019-02-03T01:50:32.774Z,16.32
2019-02-03T01:51:05.537Z,17.50
2019-02-03T01:51:38.409Z,17.07
2019-02-03T01:52:11.194Z,19.00
2019-02-03T01:52:43.929Z,16.57
2019-02-03T01:53:17.143Z,17.75
2019-02-03T01:53:49.621Z,18.15
2019-02-03T01:54:22.110Z,18.52
2019-02-03T01:54:54.635Z,18.48
2019-02-03T01:55:27.260Z,16.80
2019-02-03T01:55:59.809Z,17.20
2019-02-03T01:56:32.656Z,18.40
2019-02-03T01:57:05.142Z,18.27
2019-02-03T01:57:37.838Z,18.77
2019-02-03T01:58:10.615Z,17.52
2019-02-03T01:58:43.498Z,18.32
2019-02-03T01:59:16.001Z,18.75
2019-02-03T01:59:48.488Z,17.95
2019-02-03T02:00:23.544Z,17.20
2019-02-03T02:00:56.029Z,18.48
2019-02-03T02:01:28.489Z,16.45
2019-02-03T02:02:01.248Z,18.07
2019-02-03T02:02:34.168Z,19.05
2019-02-03T02:03:06.673Z,16.50
2019-02-03T02:03:39.161Z,18.23
2019-02-03T02:04:12.303Z,17.77
2019-02-03T02:04:45.077Z,17.52
2019-02-03T02:05:17.746Z,18.70
2019-02-03T02:05:50.612Z,16.30
2019-02-03T02:06:23.104Z,18.45
2019-02-03T02:06:55.854Z,16.95
2019-02-03T02:07:28.364Z,16.70
2019-02-03T02:08:00.849Z,18.00
2019-02-03T02:08:33.368Z,17.65
2019-02-03T02:09:07.465Z,17.42
2019-02-03T02:09:39.946Z,18.05
2019-02-03T02:10:15.652Z,18.10
2019-02-03T02:10:48.134Z,18.12
2019-02-03T02:11:20.818Z,17.60
2019-02-03T02:11:53.320Z,18.30
2019-02-03T02:12:26.210Z,18.55
2019-02-03T02:12:59.354Z,17.80
2019-02-03T02:13:31.838Z,18.70
2019-02-03T02:14:04.364Z,17.35
2019-02-03T02:14:36.852Z,18.75
2019-02-03T02:15:11.685Z,18.00
2019-02-03T02:15:44.174Z,17.60
2019-02-03T02:16:16.926Z,18.82
2019-02-03T02:16:49.427Z,17.27
2019-02-03T02:17:22.327Z,17.92
2019-02-03T02:17:54.891Z,17.98
2019-02-03T02:18:27.428Z,17.57
2019-02-03T02:18:59.899Z,18.48
2019-02-03T02:19:32.406Z,17.85
2019-02-03T02:20:06.170Z,17.75
2019-02-03T02:20:39.017Z,18.55
2019-02-03T02:21:11.791Z,19.00
2019-02-03T02:21:44.656Z,18.02
2019-02-03T02:22:17.130Z,17.73
2019-02-03T02:22:49.986Z,17.87
2019-02-03T02:23:22.916Z,18.73
2019-02-03T02:23:55.408Z,18.27
2019-02-03T02:24:28.202Z,18.32
2019-02-03T02:25:01.379Z,17.70
2019-02-03T02:25:33.872Z,18.15
2019-02-03T02:26:06.855Z,17.73
2019-02-03T02:26:39.350Z,17.67
2019-02-03T02:27:11.851Z,18.05
2019-02-03T02:27:44.327Z,16.70
2019-02-03T02:28:16.808Z,17.48
2019-02-03T02:28:49.624Z,16.67
2019-02-03T02:29:22.498Z,16.60
2019-02-03T02:29:55.006Z,18.67
2019-02-03T02:30:27.520Z,17.23
2019-02-03T02:30:59.998Z,17.45
2019-02-03T02:31:32.493Z,17.77
2019-02-03T02:32:04.987Z,17.60
2019-02-03T02:32:37.460Z,17.42
2019-02-03T02:33:10.236Z,17.77
2019-02-03T02:33:42.728Z,17.57
2019-02-03T02:34:15.547Z,17.87
2019-02-03T02:34:48.015Z,17.90
2019-02-03T02:35:20.872Z,17.82
2019-02-03T02:35:53.667Z,16.75
2019-02-03T02:36:26.461Z,17.40
2019-02-03T02:36:59.225Z,17.20
2019-02-03T02:37:31.724Z,16.00
2019-02-03T02:38:06.871Z,16.62
2019-02-03T02:38:39.163Z,15.13
2019-02-03T02:39:11.663Z,16.87
2019-02-03T02:39:44.156Z,16.52
2019-02-03T02:40:18.745Z,16.25
2019-02-03T02:40:52.065Z,17.05
2019-02-03T02:41:24.598Z,16.70
2019-02-03T02:41:57.078Z,15.48
2019-02-03T02:42:29.555Z,16.12
2019-02-03T02:43:02.032Z,16.05
2019-02-03T02:43:34.502Z,17.80
2019-02-03T02:44:06.982Z,17.73
2019-02-03T02:44:39.468Z,15.98
2019-02-03T02:45:12.155Z,15.93
2019-02-03T02:45:44.999Z,16.10
2019-02-03T02:46:17.483Z,15.25
2019-02-03T02:46:50.029Z,15.88
2019-02-03T02:47:22.515Z,15.88
2019-02-03T02:47:55.717Z,16.05
2019-02-03T02:48:28.464Z,16.93
2019-02-03T02:49:01.635Z,16.48
2019-02-03T02:49:34.134Z,16.27
2019-02-03T02:50:09.974Z,15.53
2019-02-03T02:50:43.864Z,15.70
2019-02-03T02:51:17.036Z,15.53
2019-02-03T02:51:52.359Z,16.32
2019-02-03T02:52:25.438Z,15.30
2019-02-03T02:52:57.921Z,15.80
2019-02-03T02:53:30.394Z,15.93
2019-02-03T02:54:02.880Z,15.78
2019-02-03T02:54:35.962Z,15.55
2019-02-03T02:55:08.674Z,14.90
2019-02-03T02:55:41.497Z,16.87
2019-02-03T02:56:14.005Z,15.25
2019-02-03T02:56:46.804Z,15.50
2019-02-03T02:57:19.615Z,15.30
2019-02-03T02:57:52.104Z,16.65
2019-02-03T02:58:24.599Z,15.95
2019-02-03T02:58:57.098Z,16.02
2019-02-03T02:59:29.600Z,15.55
2019-02-03T03:00:02.073Z,16.35
2019-02-03T03:00:34.673Z,14.93
2019-02-03T03:01:07.138Z,15.70
2019-02-03T03:01:40.356Z,15.43
2019-02-03T03:02:12.832Z,16.23
2019-02-03T03:02:45.930Z,15.03
2019-02-03T03:03:18.392Z,16.52
2019-02-03T03:03:51.181Z,16.87
2019-02-03T03:04:23.649Z,15.68
2019-02-03T03:04:56.144Z,16.90
2019-02-03T03:05:28.618Z,17.40
2019-02-03T03:06:01.512Z,15.88
2019-02-03T03:06:33.995Z,15.60
2019-02-03T03:07:06.473Z,16.25
2019-02-03T03:07:38.960Z,16.77
2019-02-03T03:08:19.115Z,15.60
2019-02-03T03:08:45.766Z,16.60
2019-02-03T03:09:18.275Z,16.48
2019-02-03T03:09:50.766Z,16.12
2019-02-03T03:10:23.365Z,16.27
2019-02-03T03:10:55.863Z,16.52
2019-02-03T03:11:28.723Z,16.23
2019-02-03T03:12:01.333Z,15.85
2019-02-03T03:12:33.806Z,14.43
2019-02-03T03:13:06.602Z,15.88
2019-02-03T03:13:39.803Z,15.30
2019-02-03T03:14:12.282Z,15.88
2019-02-03T03:14:44.768Z,14.98
2019-02-03T03:15:18.956Z,15.55
2019-02-03T03:15:51.476Z,15.83
2019-02-03T03:16:24.522Z,15.13
2019-02-03T03:16:56.995Z,15.25
2019-02-03T03:17:30.535Z,15.38
2019-02-03T03:18:03.129Z,15.50
2019-02-03T03:18:35.616Z,15.70
2019-02-03T03:19:08.146Z,15.20
2019-02-03T03:19:40.642Z,16.07
2019-02-03T03:20:14.769Z,15.15
2019-02-03T03:20:47.609Z,15.88
2019-02-03T03:21:20.354Z,15.45
2019-02-03T03:21:52.848Z,15.75
2019-02-03T03:22:26.023Z,15.15
2019-02-03T03:22:58.536Z,15.23
2019-02-03T03:23:31.023Z,15.70
2019-02-03T03:24:03.740Z,15.78
2019-02-03T03:24:36.391Z,14.30
2019-02-03T03:25:11.662Z,15.58
2019-02-03T03:25:44.460Z,15.68
2019-02-03T03:26:17.504Z,16.25
2019-02-03T03:26:50.354Z,15.70
2019-02-03T03:27:23.142Z,15.83
2019-02-03T03:27:55.608Z,14.90
2019-02-03T03:28:28.447Z,15.88
2019-02-03T03:29:00.938Z,15.68
2019-02-03T03:29:34.042Z,16.50
2019-02-03T03:30:16.597Z,15.32
2019-02-03T03:30:49.089Z,15.35
2019-02-03T03:31:21.574Z,16.10
2019-02-03T03:31:54.343Z,15.35
2019-02-03T03:32:26.810Z,15.03
2019-02-03T03:32:59.731Z,16.05
2019-02-03T03:33:32.843Z,15.15
2019-02-03T03:34:05.647Z,15.35
2019-02-03T03:34:38.855Z,16.00
2019-02-03T03:35:11.750Z,16.00
2019-02-03T03:35:44.575Z,15.65
2019-02-03T03:36:17.429Z,16.15
2019-02-03T03:36:50.277Z,15.10
2019-02-03T03:37:22.746Z,15.78
2019-02-03T03:37:55.247Z,17.40
2019-02-03T03:38:32.233Z,15.72
2019-02-03T03:39:04.082Z,16.12
2019-02-03T03:39:36.993Z,15.38
2019-02-03T03:40:10.202Z,15.63
2019-02-03T03:40:42.678Z,14.05
2019-02-03T03:41:15.466Z,16.40
2019-02-03T03:41:47.964Z,14.55
2019-02-03T03:42:20.448Z,15.05
2019-02-03T03:42:53.024Z,15.40
2019-02-03T03:43:25.857Z,14.80
2019-02-03T03:43:58.361Z,16.90
2019-02-03T03:44:30.855Z,15.20
2019-02-03T03:45:04.650Z,14.95
2019-02-03T03:45:37.137Z,15.13
2019-02-03T03:46:10.005Z,15.53
2019-02-03T03:46:42.527Z,14.38
2019-02-03T03:47:15.520Z,16.07
2019-02-03T03:47:48.021Z,15.08
2019-02-03T03:48:20.914Z,16.05
2019-02-03T03:48:53.408Z,15.43
2019-02-03T03:49:26.383Z,14.45
2019-02-03T03:49:58.864Z,16.32
2019-02-03T03:50:31.702Z,14.33
2019-02-03T03:51:04.456Z,16.07
2019-02-03T03:51:36.943Z,15.63
2019-02-03T03:52:09.446Z,14.13
2019-02-03T03:52:42.614Z,15.15
2019-02-03T03:53:15.396Z,15.15
2019-02-03T03:53:48.289Z,14.23
2019-02-03T03:54:20.882Z,14.60
2019-02-03T03:54:53.355Z,15.53
2019-02-03T03:55:26.114Z,15.80
2019-02-03T03:55:58.685Z,14.95
2019-02-03T03:56:31.551Z,14.87
2019-02-03T03:57:04.032Z,15.35
2019-02-03T03:57:36.550Z,16.62
2019-02-03T03:58:09.059Z,15.50
2019-02-03T03:58:41.913Z,16.20
2019-02-03T03:59:14.422Z,15.90
2019-02-03T03:59:47.305Z,15.93
2019-02-03T04:00:21.996Z,16.35
2019-02-03T04:00:55.175Z,16.75
2019-02-03T04:01:27.647Z,15.05
2019-02-03T04:02:00.443Z,15.25
2019-02-03T04:02:33.415Z,14.78
2019-02-03T04:03:05.930Z,15.23
2019-02-03T04:03:38.789Z,14.15
2019-02-03T04:04:11.699Z,15.05
2019-02-03T04:04:44.806Z,17.25
2019-02-03T04:05:17.400Z,14.95
2019-02-03T04:05:50.289Z,15.15
2019-02-03T04:06:23.129Z,16.00
2019-02-03T04:06:55.900Z,14.30
2019-02-03T04:07:28.366Z,16.37
2019-02-03T04:08:00.851Z,15.98
2019-02-03T04:08:44.561Z,15.75
2019-02-03T04:09:09.256Z,14.95
2019-02-03T04:09:42.138Z,15.23
2019-02-03T04:10:15.810Z,15.08
2019-02-03T04:10:48.756Z,14.35
2019-02-03T04:11:21.366Z,15.85
2019-02-03T04:11:53.822Z,15.13
2019-02-03T04:12:26.332Z,16.10
2019-02-03T04:12:59.246Z,15.40
2019-02-03T04:13:32.471Z,16.20
2019-02-03T04:14:05.087Z,15.15
2019-02-03T04:14:37.857Z,14.35
2019-02-03T04:15:12.438Z,15.35
2019-02-03T04:15:45.641Z,14.45
2019-02-03T04:16:18.126Z,14.33
2019-02-03T04:16:51.096Z,16.62
2019-02-03T04:17:24.212Z,16.32
2019-02-03T04:17:56.695Z,15.80
2019-02-03T04:18:29.620Z,15.28
2019-02-03T04:19:02.158Z,15.63
2019-02-03T04:19:34.675Z,17.27
2019-02-03T04:20:14.019Z,15.53
2019-02-03T04:20:46.519Z,15.80
2019-02-03T04:21:19.348Z,16.95
2019-02-03T04:21:52.132Z,16.07
2019-02-03T04:22:24.617Z,16.52
2019-02-03T04:22:57.101Z,16.02
2019-02-03T04:23:29.570Z,16.70
2019-02-03T04:24:02.071Z,15.65
2019-02-03T04:24:34.582Z,16.07
2019-02-03T04:25:07.146Z,15.70
2019-02-03T04:25:39.635Z,14.83
2019-02-03T04:26:12.396Z,16.07
2019-02-03T04:26:44.942Z,15.65
2019-02-03T04:27:17.789Z,14.93
2019-02-03T04:27:50.285Z,15.85
2019-02-03T04:28:22.752Z,16.02
2019-02-03T04:28:55.225Z,15.48
2019-02-03T04:29:27.919Z,16.10
2019-02-03T04:30:00.403Z,14.73
2019-02-03T04:30:33.710Z,16.00
2019-02-03T04:31:06.336Z,16.15
2019-02-03T04:31:38.828Z,15.98
2019-02-03T04:32:11.824Z,17.12
2019-02-03T04:32:44.319Z,16.20
2019-02-03T04:33:16.810Z,16.45
2019-02-03T04:33:49.622Z,15.93
2019-02-03T04:34:22.092Z,15.90
2019-02-03T04:34:54.566Z,16.10
2019-02-03T04:35:27.059Z,15.72
2019-02-03T04:35:59.860Z,16.70
2019-02-03T04:36:32.340Z,15.78
2019-02-03T04:37:04.819Z,16.07
2019-02-03T04:37:37.407Z,15.05
2019-02-03T04:38:10.217Z,15.48
2019-02-03T04:38:43.043Z,16.20
2019-02-03T04:39:15.519Z,16.02
2019-02-03T04:39:48.293Z,16.25
2019-02-03T04:40:21.151Z,17.15
2019-02-03T04:40:54.160Z,16.27
2019-02-03T04:41:26.687Z,16.00
2019-02-03T04:41:59.584Z,16.97
2019-02-03T04:42:32.068Z,16.73
2019-02-03T04:43:04.834Z,16.15
2019-02-03T04:43:37.325Z,15.28
2019-02-03T04:44:10.090Z,16.07
2019-02-03T04:44:42.886Z,16.12
2019-02-03T04:45:16.251Z,17.05
2019-02-03T04:45:48.988Z,15.20
2019-02-03T04:46:21.478Z,16.62
2019-02-03T04:46:54.277Z,16.60
2019-02-03T04:47:27.216Z,16.48
2019-02-03T04:47:59.699Z,17.32
2019-02-03T04:48:32.780Z,16.70
2019-02-03T04:49:05.271Z,18.35
2019-02-03T04:49:37.764Z,17.60
2019-02-03T04:50:11.140Z,17.80
2019-02-03T04:50:44.007Z,17.80
2019-02-03T04:51:16.490Z,17.05
2019-02-03T04:51:48.983Z,17.70
2019-02-03T04:52:21.514Z,17.90
2019-02-03T04:52:54.279Z,18.55
2019-02-03T04:53:27.412Z,17.40
2019-02-03T04:54:00.187Z,16.77
2019-02-03T04:54:32.967Z,19.30
2019-02-03T04:55:06.969Z,17.98
2019-02-03T04:55:39.770Z,18.12
2019-02-03T04:56:12.280Z,17.30
2019-02-03T04:56:44.769Z,18.35
2019-02-03T04:57:17.242Z,18.05
2019-02-03T04:57:49.861Z,18.60
2019-02-03T04:58:22.342Z,17.50
2019-02-03T04:58:55.109Z,18.57
2019-02-03T04:59:27.589Z,17.15
2019-02-03T05:00:00.099Z,18.50
2019-02-03T05:00:32.866Z,18.20
2019-02-03T05:01:05.342Z,17.23
2019-02-03T05:01:37.822Z,19.67
2019-02-03T05:02:10.680Z,18.40
2019-02-03T05:02:43.554Z,19.10
2019-02-03T05:03:16.063Z,17.98
2019-02-03T05:03:48.811Z,18.57
2019-02-03T05:04:21.332Z,17.87
2019-02-03T05:04:53.824Z,16.55
2019-02-03T05:05:26.325Z,18.10
2019-02-03T05:05:59.307Z,19.23
2019-02-03T05:06:31.898Z,19.90
2019-02-03T05:07:05.182Z,19.12
2019-02-03T05:07:37.976Z,18.50
2019-02-03T05:08:10.471Z,19.65
2019-02-03T05:08:42.996Z,18.73
2019-02-03T05:09:15.483Z,18.50
2019-02-03T05:09:47.979Z,18.50
2019-02-03T05:10:20.494Z,18.73
2019-02-03T05:10:52.958Z,19.07
2019-02-03T05:11:25.454Z,19.45
2019-02-03T05:11:58.481Z,18.62
2019-02-03T05:12:30.980Z,18.60
2019-02-03T05:13:03.486Z,19.75
2019-02-03T05:13:35.983Z,19.32
2019-02-03T05:14:08.794Z,17.75
2019-02-03T05:14:41.886Z,17.45
2019-02-03T05:15:16.664Z,19.75
2019-02-03T05:15:49.144Z,19.12
2019-02-03T05:16:21.638Z,19.35
2019-02-03T05:16:54.117Z,19.90
2019-02-03T05:17:26.802Z,20.35
2019-02-03T05:17:59.341Z,19.40
2019-02-03T05:18:32.169Z,19.98
2019-02-03T05:19:04.642Z,18.00
2019-02-03T05:19:37.154Z,19.02
2019-02-03T05:20:11.495Z,18.80
2019-02-03T05:20:44.095Z,19.37
2019-02-03T05:21:16.529Z,19.70
2019-02-03T05:21:49.803Z,17.87
2019-02-03T05:22:22.273Z,17.87
2019-02-03T05:22:54.755Z,20.45
2019-02-03T05:23:27.619Z,19.80
2019-02-03T05:24:00.372Z,19.12
2019-02-03T05:24:33.225Z,18.20
2019-02-03T05:25:06.581Z,19.30
2019-02-03T05:25:39.073Z,18.15
2019-02-03T05:26:11.574Z,19.98
2019-02-03T05:26:44.054Z,18.73
2019-02-03T05:27:16.525Z,19.25
2019-02-03T05:27:49.023Z,19.77
2019-02-03T05:28:21.795Z,19.95
2019-02-03T05:28:54.902Z,18.67
2019-02-03T05:29:27.698Z,19.15
2019-02-03T05:30:00.489Z,19.30
2019-02-03T05:30:33.754Z,20.32
2019-02-03T05:31:06.729Z,18.60
2019-02-03T05:31:39.215Z,20.20
2019-02-03T05:32:12.097Z,19.80
2019-02-03T05:32:44.605Z,20.57
2019-02-03T05:33:17.731Z,20.70
2019-02-03T05:33:50.202Z,20.62
2019-02-03T05:34:22.690Z,20.45
2019-02-03T05:34:55.175Z,20.30
2019-02-03T05:35:27.969Z,19.87
2019-02-03T05:36:00.640Z,19.40
2019-02-03T05:36:33.116Z,19.70
2019-02-03T05:37:05.607Z,19.02
2019-02-03T05:37:38.078Z,20.68
2019-02-03T05:38:10.584Z,20.60
2019-02-03T05:38:43.079Z,20.90
2019-02-03T05:39:24.460Z,21.77
2019-02-03T05:39:49.868Z,19.60
2019-02-03T05:40:23.061Z,20.05
2019-02-03T05:40:55.532Z,19.95
2019-02-03T05:41:28.427Z,19.05
2019-02-03T05:42:01.186Z,20.30
2019-02-03T05:42:33.978Z,19.55
2019-02-03T05:43:06.846Z,20.00
2019-02-03T05:43:39.722Z,19.82
2019-02-03T05:44:12.201Z,21.07
2019-02-03T05:44:44.700Z,18.80
2019-02-03T05:45:18.456Z,20.35
2019-02-03T05:45:50.918Z,22.45
2019-02-03T05:46:23.399Z,19.67
2019-02-03T05:46:56.247Z,20.10
2019-02-03T05:47:28.735Z,20.77
2019-02-03T05:48:01.486Z,21.05
2019-02-03T05:48:34.342Z,20.12
2019-02-03T05:49:06.838Z,18.75
2019-02-03T05:49:39.315Z,21.50
2019-02-03T05:50:13.472Z,20.12
2019-02-03T05:50:45.962Z,20.45
2019-02-03T05:51:18.805Z,20.30
2019-02-03T05:51:51.588Z,21.25
2019-02-03T05:52:24.394Z,20.32
2019-02-03T05:52:56.880Z,21.35
2019-02-03T05:53:29.375Z,20.23
2019-02-03T05:54:02.151Z,20.27
2019-02-03T05:54:34.619Z,21.62
2019-02-03T05:55:07.821Z,19.05
2019-02-03T05:55:40.865Z,20.40
2019-02-03T05:56:14.020Z,19.45
2019-02-03T05:56:46.538Z,20.95
2019-02-03T05:57:19.613Z,18.98
2019-02-03T05:57:52.462Z,21.23
2019-02-03T05:58:25.616Z,20.88
2019-02-03T05:58:58.444Z,21.07
2019-02-03T05:59:31.219Z,20.25
2019-02-03T06:00:05.738Z,19.62
2019-02-03T06:00:40.291Z,20.80
2019-02-03T06:01:12.765Z,20.57
2019-02-03T06:01:45.236Z,18.57
2019-02-03T06:02:18.268Z,19.80
2019-02-03T06:02:51.052Z,20.95
2019-02-03T06:03:23.571Z,21.33
2019-02-03T06:03:56.174Z,19.90
2019-02-03T06:04:28.666Z,18.77
2019-02-03T06:05:01.136Z,20.12
2019-02-03T06:05:33.634Z,20.15
2019-02-03T06:06:06.114Z,20.77
2019-02-03T06:06:38.881Z,20.62
2019-02-03T06:07:11.797Z,21.48
2019-02-03T06:07:44.281Z,21.12
2019-02-03T06:08:16.767Z,20.65
2019-02-03T06:08:49.488Z,20.48
2019-02-03T06:09:21.966Z,19.70
2019-02-03T06:09:54.867Z,20.17
2019-02-03T06:10:27.733Z,26.07
2019-02-03T06:11:00.533Z,23.95
2019-02-03T06:11:33.386Z,25.60
2019-02-03T06:12:05.866Z,23.32
2019-02-03T06:12:38.471Z,23.50
2019-02-03T06:13:10.956Z,24.43
2019-02-03T06:13:44.159Z,24.23
2019-02-03T06:14:16.668Z,22.10
2019-02-03T06:14:49.174Z,21.95
2019-02-03T06:15:21.999Z,20.68
2019-02-03T06:15:54.490Z,20.35
2019-02-03T06:16:27.403Z,23.80
2019-02-03T06:17:00.200Z,21.02
2019-02-03T06:17:32.678Z,24.67
2019-02-03T06:18:05.262Z,25.77
2019-02-03T06:18:37.782Z,25.08
2019-02-03T06:19:10.309Z,25.60
2019-02-03T06:19:42.823Z,26.23
2019-02-03T06:20:15.527Z,24.85
2019-02-03T06:20:48.032Z,24.77
2019-02-03T06:21:21.419Z,21.27
2019-02-03T06:21:54.557Z,22.50
2019-02-03T06:22:27.355Z,21.85
2019-02-03T06:22:59.822Z,21.35
2019-02-03T06:23:32.288Z,23.40
2019-02-03T06:24:04.767Z,22.07
2019-02-03T06:24:37.639Z,23.30
2019-02-03T06:25:10.313Z,24.43
2019-02-03T06:25:42.842Z,24.55
2019-02-03T06:26:15.721Z,23.47
2019-02-03T06:26:48.484Z,28.07
2019-02-03T06:27:21.007Z,28.05
2019-02-03T06:27:53.499Z,28.42
2019-02-03T06:28:25.997Z,29.57
2019-02-03T06:28:58.475Z,24.40
2019-02-03T06:29:30.958Z,24.75
2019-02-03T06:30:06.938Z,25.50
2019-02-03T06:31:07.122Z,23.90
2019-02-03T06:31:39.624Z,22.00
2019-02-03T06:32:12.772Z,22.32
2019-02-03T06:32:45.556Z,21.77
2019-02-03T06:33:18.036Z,23.00
2019-02-03T06:33:52.798Z,24.23
2019-02-03T06:34:25.609Z,22.10
2019-02-03T06:34:58.455Z,21.85
2019-02-03T06:35:30.927Z,22.90
2019-02-03T06:36:04.677Z,21.73
2019-02-03T06:36:37.234Z,22.82
2019-02-03T06:37:09.820Z,25.08
2019-02-03T06:37:42.685Z,22.30
2019-02-03T06:38:15.209Z,21.87
2019-02-03T06:38:48.177Z,22.10
2019-02-03T06:39:21.033Z,22.00
2019-02-03T06:39:54.119Z,21.30
2019-02-03T06:40:26.614Z,20.20
2019-02-03T06:40:59.106Z,20.15
2019-02-03T06:41:31.871Z,22.05
2019-02-03T06:42:04.379Z,21.57
2019-02-03T06:42:37.240Z,22.00
2019-02-03T06:43:09.714Z,21.55
2019-02-03T06:43:42.186Z,21.27
2019-02-03T06:44:14.708Z,22.75
2019-02-03T06:44:47.803Z,21.87
2019-02-03T06:45:28.836Z,20.82
2019-02-03T06:46:14.772Z,21.35
2019-02-03T06:46:55.990Z,21.85
2019-02-03T06:47:28.504Z,21.33
2019-02-03T06:48:01.306Z,20.88
2019-02-03T06:48:33.786Z,20.00
2019-02-03T06:49:09.781Z,22.27
2019-02-03T06:49:42.986Z,23.30
2019-02-03T06:50:15.475Z,20.20
2019-02-03T06:50:48.318Z,20.72
2019-02-03T06:51:20.800Z,23.12
2019-02-03T06:51:53.568Z,20.95
2019-02-03T06:52:26.049Z,21.70
2019-02-03T06:52:58.841Z,23.42
2019-02-03T06:53:31.328Z,23.20
2019-02-03T06:54:03.932Z,22.55
2019-02-03T06:54:36.816Z,21.95
2019-02-03T06:55:09.317Z,22.60
2019-02-03T06:55:42.131Z,21.35
2019-02-03T06:56:14.615Z,23.00
2019-02-03T06:56:47.130Z,20.40
2019-02-03T06:57:19.748Z,22.77
2019-02-03T06:57:52.546Z,21.82
2019-02-03T06:58:25.344Z,21.97
2019-02-03T06:58:58.223Z,23.65
2019-02-03T06:59:30.706Z,23.07
2019-02-03T07:00:04.971Z,23.20
2019-02-03T07:00:37.536Z,22.10
2019-02-03T07:01:10.025Z,21.17
2019-02-03T07:01:42.640Z,22.07
2019-02-03T07:02:15.108Z,21.77
2019-02-03T07:02:47.603Z,21.42
2019-02-03T07:03:20.581Z,21.57
2019-02-03T07:03:53.090Z,21.87